Time;durP1;ratioP1;P1;durP2;ratioP2;P2;SDS_P1;SDS_P2;PMS_P1;PMS_P2;Temp;Humidity;BMP_temperature;BMP_pressure;BME280_temperature;BME280_humidity;BME280_pressure;Samples;Min_cycle;Max_cycle;Signal;HPM_P1;HPM_P2
2021/04/16 00:00:25;;;;;;;3.53;1.08;;;;;;;2.46;47.88;102985.00;5001408;28;20632;-68
2021/04/16 00:02:50;;;;;;;5.00;0.70;;;;;;;2.49;47.71;102987.69;5018746;28;20329;-67
2021/04/16 00:05:16;;;;;;;5.55;1.33;;;;;;;2.37;47.69;102994.22;5021086;28;20482;-68
2021/04/16 00:07:42;;;;;;;4.30;0.90;;;;;;;2.32;47.65;102989.81;5018682;28;20030;-69
2021/04/16 00:10:12;;;;;;;6.53;1.27;;;;;;;2.28;47.85;102989.66;5017224;28;20567;-67
2021/04/16 00:12:38;;;;;;;6.40;0.75;;;;;;;2.25;48.01;102985.31;5016178;28;20109;-70
2021/04/16 00:15:10;;;;;;;2.47;0.45;;;;;;;2.18;48.10;102991.13;5017524;28;20116;-67
2021/04/16 00:17:36;;;;;;;3.83;0.70;;;;;;;2.22;48.21;102984.31;5016445;28;20124;-69
2021/04/16 00:20:03;;;;;;;8.15;0.98;;;;;;;2.27;47.97;102985.34;4998152;28;20689;-68
2021/04/16 00:22:29;;;;;;;1.88;0.40;;;;;;;2.23;47.80;102979.22;5020239;28;20033;-67
2021/04/16 00:24:54;;;;;;;2.78;1.13;;;;;;;2.12;47.96;102976.31;5017201;28;20109;-67
2021/04/16 00:27:20;;;;;;;4.55;0.45;;;;;;;2.01;47.92;102980.28;5021940;28;20478;-68
2021/04/16 00:29:45;;;;;;;7.28;0.75;;;;;;;1.89;48.32;102982.53;5002705;28;20448;-67
2021/04/16 00:32:11;;;;;;;3.10;0.30;;;;;;;1.83;48.62;102972.88;5019942;28;20064;-67
2021/04/16 00:34:37;;;;;;;3.28;0.65;;;;;;;1.91;48.59;102974.00;5017125;28;20064;-67
2021/04/16 00:37:03;;;;;;;3.15;0.68;;;;;;;2.06;48.08;102970.13;5015144;28;20041;-66
2021/04/16 00:39:28;;;;;;;6.43;0.95;;;;;;;2.01;48.20;102971.69;5014638;28;20116;-68
2021/04/16 00:41:54;;;;;;;5.43;0.85;;;;;;;1.92;48.54;102967.13;5016456;28;20864;-69
2021/04/16 00:44:19;;;;;;;5.75;1.67;;;;;;;1.90;48.49;102968.78;5029195;28;20067;-69
2021/04/16 00:46:50;;;;;;;5.47;0.88;;;;;;;1.91;48.29;102965.41;5024164;28;20045;-67
2021/04/16 00:49:26;;;;;;;9.50;0.50;;;;;;;1.79;48.43;102958.16;5024262;28;20041;-67
2021/04/16 00:51:58;;;;;;;3.95;0.52;;;;;;;1.80;48.51;102962.50;5022388;28;20041;-67
2021/04/16 00:54:31;;;;;;;3.45;0.75;;;;;;;1.91;48.32;102958.53;5022605;28;20033;-67
2021/04/16 00:56:57;;;;;;;4.20;1.05;;;;;;;1.80;48.29;102961.63;5019472;28;20044;-67
2021/04/16 00:59:27;;;;;;;3.75;0.85;;;;;;;1.84;48.20;102964.34;5017856;28;20041;-69
2021/04/16 01:01:54;;;;;;;4.45;0.88;;;;;;;1.84;48.14;102956.59;5019439;28;20033;-67
2021/04/16 01:04:19;;;;;;;1.55;0.55;;;;;;;1.75;48.04;102952.84;5019256;28;20032;-68
2021/04/16 01:06:45;;;;;;;5.05;0.75;;;;;;;1.68;48.05;102946.63;5018769;28;20980;-69
2021/04/16 01:09:11;;;;;;;4.75;0.73;;;;;;;1.60;48.25;102943.84;5020413;28;20630;-68
2021/04/16 01:11:36;;;;;;;3.72;1.05;;;;;;;1.50;48.50;102945.25;5023016;28;20039;-67
2021/04/16 01:14:03;;;;;;;2.50;0.63;;;;;;;1.45;48.85;102948.53;5019828;28;20100;-67
2021/04/16 01:16:32;;;;;;;1.48;0.65;;;;;;;1.45;49.02;102939.09;5017845;28;20034;-68
2021/04/16 01:19:02;;;;;;;5.55;1.35;;;;;;;1.55;48.69;102939.34;5033474;28;20041;-69
2021/04/16 01:21:38;;;;;;;3.45;0.90;;;;;;;1.59;48.69;102936.91;5018078;28;20038;-67
2021/04/16 01:24:20;;;;;;;3.60;1.65;;;;;;;1.41;48.93;102934.66;5018027;28;20033;-69
2021/04/16 01:26:46;;;;;;;4.38;1.83;;;;;;;1.51;48.66;102944.44;5016428;28;20668;-69
2021/04/16 01:29:12;;;;;;;3.78;0.60;;;;;;;1.49;48.59;102940.94;5021794;28;20098;-69
2021/04/16 01:31:47;;;;;;;6.05;0.60;;;;;;;1.57;48.38;102938.56;5017894;28;20648;-69
2021/04/16 01:34:34;;;;;;;1.30;0.55;;;;;;;1.51;48.49;102941.84;5017726;28;20038;-69
2021/04/16 01:37:00;;;;;;;2.78;0.93;;;;;;;1.57;48.18;102940.28;5016658;28;20051;-67
2021/04/16 01:39:28;;;;;;;1.98;0.52;;;;;;;1.48;48.26;102939.19;5025426;28;20041;-71
2021/04/16 01:41:54;;;;;;;1.40;0.75;;;;;;;1.43;48.26;102943.31;5019080;28;20550;-67
2021/04/16 01:44:23;;;;;;;6.35;0.68;;;;;;;1.38;48.42;102939.69;5022993;28;20041;-69
2021/04/16 01:47:03;;;;;;;5.80;0.90;;;;;;;1.38;48.36;102937.13;5025575;28;20034;-66
2021/04/16 01:49:35;;;;;;;2.47;0.63;;;;;;;1.37;48.11;102935.34;5019574;28;20125;-66
2021/04/16 01:52:01;;;;;;;3.38;0.75;;;;;;;1.36;48.29;102927.59;5022781;28;20133;-69
2021/04/16 01:54:38;;;;;;;2.95;0.63;;;;;;;1.38;48.22;102936.25;5019809;28;20117;-67
2021/04/16 01:57:08;;;;;;;1.13;0.50;;;;;;;1.39;48.12;102933.69;5024171;28;20032;-67
2021/04/16 01:59:35;;;;;;;4.57;1.23;;;;;;;1.35;48.28;102930.97;5023980;28;20039;-66
2021/04/16 02:02:04;;;;;;;2.53;1.02;;;;;;;1.21;48.61;102933.13;5002339;28;20812;-68
2021/04/16 02:04:30;;;;;;;6.65;0.52;;;;;;;1.21;48.72;102935.69;5020822;28;20472;-67
2021/04/16 02:06:55;;;;;;;3.78;0.80;;;;;;;1.21;48.69;102933.13;5017848;28;20044;-68
2021/04/16 02:09:25;;;;;;;8.18;0.85;;;;;;;1.36;48.52;102940.47;5008695;28;20055;-69
2021/04/16 02:11:51;;;;;;;2.38;0.40;;;;;;;1.40;48.47;102935.50;5019697;28;20053;-68
2021/04/16 02:14:21;;;;;;;5.20;1.25;;;;;;;1.30;48.56;102933.41;5023891;28;20124;-68
2021/04/16 02:16:50;;;;;;;4.63;1.02;;;;;;;1.23;48.71;102929.75;5016079;28;20493;-68
2021/04/16 02:19:15;;;;;;;1.15;0.32;;;;;;;1.34;48.54;102940.41;5017839;28;20029;-68
2021/04/16 02:21:41;;;;;;;2.50;0.80;;;;;;;1.32;48.62;102926.59;5017430;28;20399;-67
2021/04/16 02:24:09;;;;;;;5.13;0.77;;;;;;;1.29;48.56;102935.13;5017754;28;20068;-67
2021/04/16 02:26:34;;;;;;;3.58;0.63;;;;;;;1.23;48.72;102926.31;5021994;28;20036;-67
2021/04/16 02:29:00;;;;;;;4.70;0.45;;;;;;;1.20;48.72;102928.81;5019213;28;20038;-67
2021/04/16 02:31:26;;;;;;;2.28;0.60;;;;;;;1.20;48.79;102921.06;5017084;28;20025;-67
2021/04/16 02:33:52;;;;;;;3.20;0.40;;;;;;;1.18;48.71;102922.72;5021989;28;20140;-68
2021/04/16 02:36:17;;;;;;;5.38;1.17;;;;;;;1.13;48.64;102934.56;5018581;28;20025;-67
2021/04/16 02:38:42;;;;;;;1.42;0.90;;;;;;;1.11;48.53;102927.69;5004566;28;20064;-69
2021/04/16 02:41:08;;;;;;;2.00;0.98;;;;;;;1.11;48.57;102926.81;5019442;28;20036;-67
2021/04/16 02:43:34;;;;;;;6.13;0.95;;;;;;;1.08;48.65;102930.16;5017629;28;20376;-68
2021/04/16 02:46:00;;;;;;;2.70;1.00;;;;;;;1.14;48.39;102924.31;5017572;28;20093;-67
2021/04/16 02:48:25;;;;;;;3.45;0.40;;;;;;;1.15;48.28;102926.09;5017501;28;20040;-68
2021/04/16 02:50:51;;;;;;;1.88;0.60;;;;;;;1.10;48.48;102919.88;5022496;28;20041;-68
2021/04/16 02:53:17;;;;;;;1.92;0.55;;;;;;;1.14;48.30;102928.59;5021892;28;20033;-68
2021/04/16 02:55:42;;;;;;;4.90;1.10;;;;;;;0.91;48.48;102918.44;5017036;28;20148;-68
2021/04/16 02:58:09;;;;;;;2.65;0.80;;;;;;;0.89;48.73;102920.06;5019919;28;20099;-66
2021/04/16 03:00:34;;;;;;;3.30;0.93;;;;;;;0.93;48.70;102921.94;5020778;28;20078;-67
2021/04/16 03:03:00;;;;;;;3.92;0.80;;;;;;;0.79;48.80;102918.00;5023293;28;20045;-66
2021/04/16 03:05:26;;;;;;;3.92;1.08;;;;;;;0.83;48.79;102920.72;5017609;28;20036;-68
2021/04/16 03:07:52;;;;;;;5.13;1.17;;;;;;;0.87;48.60;102924.28;5017806;28;20510;-66
2021/04/16 03:10:21;;;;;;;2.83;0.90;;;;;;;0.95;48.58;102930.59;5023203;28;20052;-67
2021/04/16 03:12:46;;;;;;;4.95;0.77;;;;;;;0.82;48.58;102918.13;5017045;28;20037;-66
2021/04/16 03:15:12;;;;;;;6.32;0.85;;;;;;;0.82;48.62;102923.28;5016746;28;20025;-68
2021/04/16 03:17:38;;;;;;;3.90;0.90;;;;;;;0.79;48.79;102923.16;5018152;28;20502;-68
2021/04/16 03:20:06;;;;;;;2.30;0.73;;;;;;;0.77;48.74;102919.66;5001567;28;20033;-67
2021/04/16 03:22:31;;;;;;;2.83;0.75;;;;;;;0.81;48.70;102926.66;5020513;28;20061;-68
2021/04/16 03:24:57;;;;;;;5.22;1.50;;;;;;;0.79;48.83;102918.91;5018473;28;20130;-69
2021/04/16 03:27:22;;;;;;;1.95;1.05;;;;;;;0.78;48.82;102924.00;5020467;28;20061;-67
2021/04/16 03:29:48;;;;;;;5.18;0.70;;;;;;;0.72;48.84;102931.50;5018425;28;20049;-67
2021/04/16 03:32:13;;;;;;;2.90;1.15;;;;;;;0.80;48.70;102927.50;5018830;28;20040;-67
2021/04/16 03:34:38;;;;;;;3.33;0.80;;;;;;;0.66;48.72;102927.91;5022136;28;20041;-66
2021/04/16 03:37:04;;;;;;;1.83;0.52;;;;;;;0.68;48.87;102926.25;5018009;28;20436;-68
2021/04/16 03:39:29;;;;;;;1.13;0.30;;;;;;;0.75;48.67;102923.88;5018473;28;20061;-67
2021/04/16 03:41:55;;;;;;;4.18;0.60;;;;;;;0.78;48.35;102926.56;5019452;28;20118;-67
2021/04/16 03:44:20;;;;;;;3.17;0.60;;;;;;;0.79;48.41;102924.06;5022340;28;20037;-67
2021/04/16 03:46:46;;;;;;;1.95;0.55;;;;;;;0.71;48.49;102924.63;5011556;28;20026;-69
2021/04/16 03:49:11;;;;;;;4.38;0.88;;;;;;;0.72;48.37;102918.63;5021053;28;20037;-67
2021/04/16 03:51:58;;;;;;;3.17;0.77;;;;;;;0.60;48.59;102922.53;5016342;28;20037;-67
2021/04/16 03:54:25;;;;;;;7.15;0.95;;;;;;;0.59;48.73;102923.38;5021151;28;20070;-68
2021/04/16 03:56:50;;;;;;;1.70;0.93;;;;;;;0.56;48.74;102920.69;5015580;28;20039;-68
2021/04/16 03:59:17;;;;;;;2.78;0.43;;;;;;;0.49;48.67;102917.00;5016593;28;20045;-68
2021/04/16 04:01:43;;;;;;;3.42;0.95;;;;;;;0.42;48.88;102919.34;5019247;28;20482;-68
2021/04/16 04:04:08;;;;;;;3.13;0.60;;;;;;;0.44;48.99;102915.13;5017085;28;20072;-68
2021/04/16 04:06:34;;;;;;;4.80;1.00;;;;;;;0.49;48.74;102923.88;5015152;28;20065;-67
2021/04/16 04:09:00;;;;;;;3.40;0.70;;;;;;;0.36;48.94;102926.81;5022691;28;20773;-67
2021/04/16 04:11:25;;;;;;;5.45;1.08;;;;;;;0.23;49.08;102928.97;5013914;28;20034;-69
2021/04/16 04:13:51;;;;;;;2.70;0.77;;;;;;;0.32;49.50;102930.09;5018281;28;20041;-67
2021/04/16 04:16:16;;;;;;;5.13;0.90;;;;;;;0.43;49.16;102924.50;5020860;28;20112;-69
2021/04/16 04:18:42;;;;;;;4.03;0.68;;;;;;;0.40;49.18;102928.69;5019369;28;20051;-66
2021/04/16 04:21:07;;;;;;;7.47;0.93;;;;;;;0.35;49.35;102927.66;5022339;28;20065;-66
2021/04/16 04:23:33;;;;;;;4.35;0.60;;;;;;;0.30;49.95;102934.31;5020542;28;20057;-67
2021/04/16 04:25:58;;;;;;;5.82;1.25;;;;;;;0.35;49.98;102919.94;5022261;28;20048;-66
2021/04/16 04:28:24;;;;;;;3.47;0.60;;;;;;;0.48;49.78;102924.69;5024709;28;20639;-67
2021/04/16 04:30:50;;;;;;;1.70;0.77;;;;;;;0.54;49.62;102919.75;5019489;28;20056;-66
2021/04/16 04:33:16;;;;;;;3.38;0.75;;;;;;;0.60;49.80;102919.97;5021027;28;20388;-68
2021/04/16 04:35:41;;;;;;;2.20;0.77;;;;;;;0.62;49.64;102920.91;5018965;28;20033;-68
2021/04/16 04:38:06;;;;;;;3.20;0.60;;;;;;;0.71;49.45;102925.47;5020947;28;20088;-67
2021/04/16 04:40:32;;;;;;;4.15;0.75;;;;;;;0.80;49.35;102925.78;5020455;28;20041;-67
2021/04/16 04:42:58;;;;;;;3.75;0.52;;;;;;;0.79;49.16;102923.16;5020804;28;20046;-69
2021/04/16 04:45:24;;;;;;;8.38;1.92;;;;;;;0.78;49.11;102921.41;5028677;28;20133;-69
2021/04/16 04:47:51;;;;;;;1.90;0.93;;;;;;;0.86;48.98;102920.00;5021571;28;20802;-67
2021/04/16 04:50:17;;;;;;;2.80;0.70;;;;;;;0.74;49.15;102923.00;5020845;28;20048;-68
2021/04/16 04:52:43;;;;;;;3.75;1.05;;;;;;;0.77;48.83;102919.66;5028455;28;20143;-68
2021/04/16 04:55:13;;;;;;;2.03;0.73;;;;;;;0.78;49.12;102916.28;5021521;28;20200;-67
2021/04/16 04:57:38;;;;;;;4.53;1.42;;;;;;;0.81;49.24;102921.50;5006187;28;20149;-69
2021/04/16 05:00:06;;;;;;;3.90;0.85;;;;;;;0.82;49.01;102923.28;5023399;28;20510;-67
2021/04/16 05:02:32;;;;;;;8.55;1.25;;;;;;;0.77;49.31;102927.38;5025330;28;20038;-69
2021/04/16 05:04:57;;;;;;;4.45;1.02;;;;;;;0.81;49.40;102932.69;5022128;28;20118;-71
2021/04/16 05:07:25;;;;;;;6.93;1.00;;;;;;;0.92;49.53;102922.75;5025304;28;20030;-68
2021/04/16 05:09:50;;;;;;;4.72;0.90;;;;;;;1.02;49.46;102926.50;5018914;28;20144;-68
2021/04/16 05:12:16;;;;;;;2.95;0.93;;;;;;;1.15;49.56;102922.63;5022482;28;20168;-70
2021/04/16 05:14:41;;;;;;;3.55;1.38;;;;;;;1.30;49.77;102917.94;5022567;28;20037;-69
2021/04/16 05:17:07;;;;;;;2.92;0.88;;;;;;;1.47;50.00;102929.69;5020366;28;20033;-69
2021/04/16 05:19:32;;;;;;;5.13;0.82;;;;;;;1.72;49.68;102928.72;5020778;28;20061;-68
2021/04/16 05:22:01;;;;;;;7.05;1.35;;;;;;;2.11;50.21;102937.59;5015051;28;20033;-69
2021/04/16 05:24:31;;;;;;;2.83;1.15;;;;;;;3.93;46.42;102923.13;5021247;28;20475;-68
2021/04/16 05:26:56;;;;;;;5.75;1.23;;;;;;;5.73;43.92;102922.75;5018861;28;20115;-68
2021/04/16 05:29:22;;;;;;;3.38;1.25;;;;;;;7.23;38.78;102911.25;5017994;28;20541;-71
2021/04/16 05:31:47;;;;;;;1.90;0.63;;;;;;;8.99;35.40;102910.09;5017306;28;20099;-70
2021/04/16 05:34:13;;;;;;;3.92;1.17;;;;;;;10.53;32.37;102909.50;5020410;28;20056;-71
2021/04/16 05:36:38;;;;;;;4.68;1.00;;;;;;;11.43;29.77;102911.28;5023867;28;20053;-69
2021/04/16 05:39:04;;;;;;;2.35;1.02;;;;;;;12.36;28.22;102904.88;5006609;28;20044;-70
2021/04/16 05:41:29;;;;;;;2.38;1.05;;;;;;;13.13;28.56;102908.84;5018447;28;20034;-68
2021/04/16 05:43:54;;;;;;;2.10;0.75;;;;;;;13.93;25.94;102908.16;5019348;28;20053;-69
2021/04/16 05:46:20;;;;;;;3.90;0.52;;;;;;;14.39;25.85;102900.94;5021739;28;20116;-69
2021/04/16 05:48:45;;;;;;;4.72;0.95;;;;;;;14.82;25.57;102899.94;5020193;28;20056;-68
2021/04/16 05:51:11;;;;;;;3.38;0.73;;;;;;;15.33;24.36;102892.41;5022399;28;20037;-68
2021/04/16 05:53:37;;;;;;;2.22;0.55;;;;;;;15.55;24.29;102897.94;5021047;28;20713;-67
2021/04/16 05:56:04;;;;;;;2.72;0.70;;;;;;;15.84;23.72;102898.84;5022209;28;20042;-69
2021/04/16 05:58:29;;;;;;;2.78;0.50;;;;;;;16.49;23.15;102892.44;5019091;28;20352;-67
2021/04/16 06:00:55;;;;;;;3.75;1.00;;;;;;;16.51;22.48;102892.34;5018249;28;20052;-69
2021/04/16 06:03:20;;;;;;;0.90;0.38;;;;;;;16.87;22.38;102881.47;5028392;28;20037;-72
2021/04/16 06:05:46;;;;;;;4.57;0.55;;;;;;;16.96;22.63;102889.09;5024587;28;20036;-67
2021/04/16 06:08:13;;;;;;;0.57;0.30;;;;;;;16.59;23.34;102883.25;5025321;28;20033;-68
2021/04/16 06:10:38;;;;;;;1.83;0.30;;;;;;;17.21;22.47;102889.09;5024659;28;20049;-67
2021/04/16 06:13:05;;;;;;;3.45;1.00;;;;;;;17.32;22.29;102884.25;5019397;28;20033;-69
2021/04/16 06:15:30;;;;;;;2.30;0.60;;;;;;;16.74;22.23;102881.88;5017900;28;20080;-69
2021/04/16 06:17:57;;;;;;;2.47;0.32;;;;;;;17.42;22.48;102879.50;5031977;28;20447;-67
2021/04/16 06:20:25;;;;;;;1.20;0.38;;;;;;;16.89;22.73;102885.81;5008020;28;20466;-69
2021/04/16 06:22:53;;;;;;;2.67;0.68;;;;;;;16.90;22.80;102886.69;5035735;28;20033;-67
2021/04/16 06:25:26;;;;;;;2.67;0.50;;;;;;;17.28;22.79;102893.22;5005706;28;20516;-71
2021/04/16 06:27:52;;;;;;;2.42;0.35;;;;;;;17.80;22.50;102888.63;5005578;28;20121;-68
2021/04/16 06:30:19;;;;;;;3.75;0.40;;;;;;;17.86;22.18;102892.81;5020800;28;20091;-68
2021/04/16 06:32:46;;;;;;;2.08;0.52;;;;;;;17.88;22.43;102885.69;5017997;28;20026;-68
2021/04/16 06:35:14;;;;;;;2.13;0.50;;;;;;;17.33;22.74;102890.41;5021083;28;20055;-69
2021/04/16 06:37:40;;;;;;;3.08;0.40;;;;;;;17.84;22.21;102886.72;5027496;28;20399;-67
2021/04/16 06:40:07;;;;;;;3.80;0.70;;;;;;;18.06;22.63;102889.41;5021112;28;20147;-67
2021/04/16 06:42:33;;;;;;;4.25;0.82;;;;;;;17.34;23.00;102893.00;5022528;28;20112;-67
2021/04/16 06:45:05;;;;;;;1.73;0.60;;;;;;;17.16;23.44;102889.25;5020047;28;20045;-68
2021/04/16 06:47:47;;;;;;;1.95;0.77;;;;;;;17.60;23.31;102894.72;5023786;28;20025;-69
2021/04/16 06:50:15;;;;;;;1.40;0.50;;;;;;;17.45;23.34;102893.47;5018724;28;20034;-67
2021/04/16 06:53:17;;;;;;;4.32;0.90;;;;;;;16.44;24.21;102888.19;5003618;28;20033;-68
2021/04/16 06:56:02;;;;;;;5.63;1.37;;;;;;;16.52;24.22;102883.53;5015645;28;20046;-66
2021/04/16 06:59:04;;;;;;;2.60;0.70;;;;;;;17.61;23.34;102875.25;5022017;28;20275;-68
2021/04/16 07:01:36;;;;;;;2.60;0.85;;;;;;;17.37;23.20;102876.16;5018568;28;20736;-67
2021/04/16 07:04:26;;;;;;;2.80;0.80;;;;;;;17.01;23.79;102879.22;5021502;28;20037;-67
2021/04/16 07:06:55;;;;;;;4.90;1.08;;;;;;;17.78;23.15;102881.69;5004666;28;20129;-68
2021/04/16 07:09:30;;;;;;;6.90;1.13;;;;;;;17.57;23.32;102880.72;5022054;28;20434;-68
2021/04/16 07:12:04;;;;;;;3.00;1.15;;;;;;;17.22;24.07;102889.03;5019335;28;20033;-68
2021/04/16 07:14:41;;;;;;;4.05;0.88;;;;;;;17.54;23.21;102880.88;5021556;28;20091;-69
2021/04/16 07:17:11;;;;;;;3.35;0.90;;;;;;;17.51;23.09;102884.47;5020651;28;20559;-67
2021/04/16 07:19:36;;;;;;;4.97;0.93;;;;;;;16.92;23.18;102883.06;5019548;28;20309;-68
2021/04/16 07:22:18;;;;;;;5.55;1.17;;;;;;;16.92;23.23;102890.13;5017627;28;20608;-67
2021/04/16 07:24:45;;;;;;;;;;;;;;;17.16;22.81;102876.03;5039305;28;20037;-68
2021/04/16 07:27:25;;;;;;;2.80;0.60;;;;;;;16.70;22.86;102872.34;5018478;28;20513;-69
2021/04/16 07:29:56;;;;;;;3.72;1.48;;;;;;;16.10;23.58;102873.47;5014617;28;20052;-67
2021/04/16 07:32:24;;;;;;;1.75;0.40;;;;;;;16.21;24.53;102871.34;5020817;28;20045;-69
2021/04/16 07:34:50;;;;;;;8.73;0.93;;;;;;;17.34;23.45;102887.72;5018005;28;20977;-67
2021/04/16 07:37:23;;;;;;;4.18;1.08;;;;;;;17.54;22.33;102884.38;5021328;28;20149;-68
2021/04/16 07:39:59;;;;;;;3.78;0.73;;;;;;;17.22;22.41;102880.22;5017765;28;20042;-69
2021/04/16 07:42:40;;;;;;;3.45;0.50;;;;;;;17.27;22.35;102877.41;5016332;28;20075;-67
2021/04/16 07:45:06;;;;;;;4.10;0.82;;;;;;;16.87;22.96;102879.72;5018406;28;20025;-68
2021/04/16 07:47:33;;;;;;;4.18;1.25;;;;;;;16.82;23.12;102879.88;4997869;28;20406;-66
2021/04/16 07:49:59;;;;;;;8.35;4.03;;;;;;;17.24;22.95;102887.16;5018936;28;20487;-66
2021/04/16 07:52:36;;;;;;;4.72;0.65;;;;;;;18.41;22.02;102871.25;5007154;28;20033;-67
2021/04/16 07:55:11;;;;;;;5.20;0.85;;;;;;;17.85;21.94;102867.31;5016028;28;20153;-65
2021/04/16 07:57:41;;;;;;;3.95;0.77;;;;;;;17.99;21.68;102870.25;5023076;28;20060;-68
2021/04/16 08:00:33;;;;;;;5.30;0.88;;;;;;;18.93;21.63;102876.13;5022139;28;20026;-68
2021/04/16 08:03:08;;;;;;;5.43;1.00;;;;;;;18.57;21.79;102887.34;5017625;28;20057;-67
2021/04/16 08:05:39;;;;;;;4.00;1.27;;;;;;;18.02;21.89;102875.41;5017935;28;20034;-69
2021/04/16 08:08:13;;;;;;;3.50;1.15;;;;;;;18.09;22.06;102876.03;5021427;28;20112;-67
2021/04/16 08:10:40;;;;;;;3.10;0.80;;;;;;;16.89;23.60;102885.81;5017859;28;20034;-68
2021/04/16 08:13:10;;;;;;;4.07;0.80;;;;;;;17.14;22.88;102884.94;5019379;28;20190;-68
2021/04/16 08:15:35;;;;;;;3.38;0.80;;;;;;;16.59;24.29;102870.06;5017113;28;20282;-68
2021/04/16 08:18:20;;;;;;;5.75;0.75;;;;;;;17.32;23.33;102878.97;5020206;28;20051;-68
2021/04/16 08:21:07;;;;;;;3.92;0.70;;;;;;;17.39;23.01;102879.63;5016942;28;20083;-68
2021/04/16 08:23:57;;;;;;;3.83;0.88;;;;;;;18.52;22.25;102876.97;5023612;28;20076;-67
2021/04/16 08:26:32;;;;;;;4.30;0.73;;;;;;;18.95;21.35;102884.88;5022444;28;20093;-68
2021/04/16 08:29:22;;;;;;;1.20;0.43;;;;;;;19.11;21.85;102882.41;5024237;28;20060;-70
2021/04/16 08:31:55;;;;;;;3.53;1.42;;;;;;;18.73;22.32;102888.41;5019265;28;20714;-66
2021/04/16 08:34:28;;;;;;;3.88;1.25;;;;;;;17.18;23.82;102895.34;5025538;28;20037;-67
2021/04/16 08:36:58;;;;;;;2.85;0.90;;;;;;;17.27;23.87;102887.97;5018582;28;20125;-67
2021/04/16 08:39:42;;;;;;;5.72;1.23;;;;;;;16.59;24.66;102893.81;5023284;28;20052;-68
2021/04/16 08:42:29;;;;;;;3.67;0.82;;;;;;;15.58;25.58;102884.66;5006227;28;20033;-67
2021/04/16 08:45:26;;;;;;;4.47;0.95;;;;;;;15.59;25.41;102882.88;5022501;28;20152;-67
2021/04/16 08:48:23;;;;;;;2.55;1.05;;;;;;;15.63;26.21;102889.78;5016314;28;20668;-68
2021/04/16 08:51:02;;;;;;;5.65;1.25;;;;;;;14.83;26.65;102891.97;5016382;28;20037;-67
2021/04/16 08:53:28;;;;;;;5.45;1.30;;;;;;;15.37;26.08;102894.06;5017378;28;20032;-69
2021/04/16 08:55:54;;;;;;;5.88;1.45;;;;;;;14.06;27.12;102892.97;5019975;28;20411;-69
2021/04/16 08:58:34;;;;;;;2.45;0.40;;;;;;;13.68;27.73;102900.78;5018569;28;20887;-68
2021/04/16 09:01:25;;;;;;;2.40;0.75;;;;;;;13.03;29.08;102897.66;5024397;28;20124;-68
2021/04/16 09:03:54;;;;;;;5.25;0.93;;;;;;;12.41;30.50;102892.56;5024474;28;20125;-67
2021/04/16 09:06:25;;;;;;;6.75;0.93;;;;;;;11.73;32.16;102896.09;5029188;28;20503;-69
2021/04/16 09:08:53;;;;;;;4.25;0.60;;;;;;;11.44;31.96;102896.44;5023739;28;20044;-69
2021/04/16 09:11:43;;;;;;;2.78;1.05;;;;;;;11.56;32.23;102890.22;5026058;28;20633;-69
2021/04/16 09:14:29;;;;;;;3.75;1.42;;;;;;;12.04;31.69;102887.84;5030324;28;20045;-67
2021/04/16 09:16:57;;;;;;;4.82;0.90;;;;;;;11.77;32.39;102889.06;5003191;28;20064;-66
2021/04/16 09:19:22;;;;;;;6.45;1.25;;;;;;;11.97;31.90;102891.44;5022942;28;20048;-68
2021/04/16 09:22:06;;;;;;;4.95;1.27;;;;;;;11.86;32.62;102895.06;5020139;28;20406;-66
2021/04/16 09:24:58;;;;;;;3.08;1.58;;;;;;;12.29;31.06;102891.00;5016378;28;20034;-66
2021/04/16 09:27:26;;;;;;;7.25;1.23;;;;;;;12.02;31.15;102893.13;5021998;28;20041;-68
2021/04/16 09:30:13;;;;;;;2.95;0.95;;;;;;;12.37;30.76;102896.09;5019838;28;20050;-69
2021/04/16 09:33:21;;;;;;;3.63;0.98;;;;;;;12.12;31.23;102891.22;5020139;28;20057;-67
2021/04/16 09:35:59;;;;;;;7.85;1.23;;;;;;;12.12;31.96;102888.59;5016666;28;20051;-69
2021/04/16 09:38:36;;;;;;;4.40;2.55;;;;;;;11.63;32.13;102891.84;5016243;28;20133;-67
2021/04/16 09:41:07;;;;;;;6.43;1.70;;;;;;;12.07;32.57;102878.19;5020474;28;20080;-67
2021/04/16 09:43:32;;;;;;;6.47;1.30;;;;;;;11.96;32.65;102879.25;5018809;28;20037;-68
2021/04/16 09:45:58;;;;;;;6.60;1.33;;;;;;;12.40;31.27;102882.94;5017671;28;20045;-67
2021/04/16 09:48:45;;;;;;;2.92;1.27;;;;;;;12.81;31.38;102879.66;5018985;28;20032;-66
2021/04/16 09:51:31;;;;;;;4.97;1.63;;;;;;;12.82;30.12;102877.91;5021919;28;20096;-66
2021/04/16 09:54:09;;;;;;;5.38;1.75;;;;;;;13.44;29.69;102883.72;5015360;28;20441;-69
2021/04/16 09:56:36;;;;;;;7.38;1.40;;;;;;;12.80;30.54;102880.53;5019682;28;20116;-66
2021/04/16 09:59:08;;;;;;;3.53;1.67;;;;;;;12.76;30.47;102878.00;5017652;28;20042;-66
2021/04/16 10:01:54;;;;;;;5.07;1.48;;;;;;;13.24;29.78;102886.75;5017863;28;20045;-68
2021/04/16 10:04:44;;;;;;;3.65;1.52;;;;;;;13.23;29.98;102889.41;5025105;28;20068;-65
2021/04/16 10:07:13;;;;;;;4.13;1.27;;;;;;;12.90;30.46;102876.03;5022580;28;20033;-69
2021/04/16 10:09:39;;;;;;;4.03;1.40;;;;;;;13.33;29.68;102875.19;5019795;28;20589;-69
2021/04/16 10:12:17;;;;;;;2.95;1.60;;;;;;;13.97;30.16;102885.28;5021794;28;20658;-68
2021/04/16 10:14:43;;;;;;;5.00;1.42;;;;;;;13.43;29.47;102881.13;5014607;28;20034;-67
2021/04/16 10:17:21;;;;;;;8.35;2.30;;;;;;;13.51;30.34;102884.47;5019956;28;20045;-66
2021/04/16 10:20:14;;;;;;;9.23;1.98;;;;;;;13.72;29.49;102885.81;5017984;28;20031;-69
2021/04/16 10:22:40;;;;;;;9.80;1.73;;;;;;;13.71;28.87;102877.06;5020917;28;20037;-66
2021/04/16 10:26:43;;;;;;;4.85;2.30;;;;;;;13.93;30.20;102877.47;5015577;28;20099;-68
2021/04/16 12:38:02;;;;;;;5.07;1.25;;;;;;;13.58;26.11;102832.69;5015147;28;20042;-68
2021/04/16 12:40:28;;;;;;;4.35;1.55;;;;;;;13.72;25.99;102818.38;5009761;28;20198;-68
2021/04/16 12:42:59;;;;;;;2.42;1.30;;;;;;;13.86;26.79;102827.69;5020366;28;20048;-68
2021/04/16 12:45:25;;;;;;;5.13;1.77;;;;;;;13.73;26.30;102821.84;5023595;28;20060;-67
2021/04/16 12:47:57;;;;;;;5.75;1.75;;;;;;;13.44;26.61;102818.06;5007499;28;20029;-66
2021/04/16 12:50:26;;;;;;;5.35;2.00;;;;;;;13.75;27.83;102812.16;5025505;28;20029;-68
2021/04/16 12:52:51;;;;;;;9.07;1.63;;;;;;;13.18;26.75;102822.97;5018344;28;20144;-68
2021/04/16 12:55:18;;;;;;;5.95;1.90;;;;;;;12.97;27.06;102811.16;5021820;28;20116;-68
2021/04/16 12:57:47;;;;;;;4.28;1.77;;;;;;;13.14;26.82;102816.06;5016955;28;20840;-67
2021/04/16 13:00:20;;;;;;;3.60;1.92;;;;;;;13.06;26.93;102814.44;5020248;28;20449;-67
2021/04/16 13:02:47;;;;;;;4.25;2.13;;;;;;;13.48;27.53;102818.88;5032597;28;20052;-67
2021/04/16 13:05:15;;;;;;;4.05;1.70;;;;;;;13.88;26.04;102811.00;5018408;28;20037;-66
2021/04/16 13:07:41;;;;;;;3.00;2.13;;;;;;;13.16;27.27;102819.53;5005475;28;20873;-68
2021/04/16 13:10:13;;;;;;;6.18;1.70;;;;;;;13.68;26.24;102818.47;5019999;28;20084;-66
2021/04/16 13:12:38;;;;;;;6.93;2.38;;;;;;;12.57;28.19;102825.81;5016871;28;20045;-66
2021/04/16 13:15:05;;;;;;;5.05;2.42;;;;;;;12.90;27.53;102823.53;5019479;28;20064;-66
2021/04/16 13:17:31;;;;;;;4.15;2.08;;;;;;;13.15;27.75;102817.81;5018899;28;20062;-69
2021/04/16 13:19:57;;;;;;;6.20;2.55;;;;;;;13.08;27.92;102817.06;5021997;28;20139;-67
2021/04/16 13:22:25;;;;;;;5.38;2.30;;;;;;;12.97;27.13;102819.88;5024357;28;20021;-67
2021/04/16 13:24:51;;;;;;;5.90;2.53;;;;;;;13.94;26.44;102821.38;5019884;28;20044;-67
2021/04/16 13:27:22;;;;;;;3.33;2.22;;;;;;;13.97;25.80;102803.78;5018896;28;20029;-69
2021/04/16 13:29:47;;;;;;;10.27;2.83;;;;;;;13.36;26.50;102817.38;5022210;28;20048;-68
2021/04/16 13:32:16;;;;;;;5.75;1.73;;;;;;;13.87;25.97;102814.50;5020848;28;20041;-68
2021/04/16 13:34:43;;;;;;;6.75;2.03;;;;;;;13.34;25.10;102813.91;5022213;28;20033;-67
2021/04/16 13:37:15;;;;;;;4.03;1.42;;;;;;;13.44;25.18;102810.19;5022641;28;20057;-67
2021/04/16 13:39:41;;;;;;;;;;;;;;;13.94;24.75;102810.84;5023469;28;20037;-67
2021/04/16 13:42:06;;;;;;;5.35;2.03;;;;;;;14.07;25.17;102800.03;5018076;28;20017;-68
2021/04/16 13:44:32;;;;;;;5.20;1.83;;;;;;;14.27;25.45;102812.69;5017063;28;20041;-67
2021/04/16 13:47:00;;;;;;;4.95;1.15;;;;;;;14.69;22.80;102805.47;5014839;28;20037;-68
2021/04/16 13:49:33;;;;;;;7.22;1.42;;;;;;;14.52;23.63;102797.16;5015873;28;20034;-70
2021/04/16 13:51:59;;;;;;;3.78;1.65;;;;;;;14.05;23.73;102799.19;5016584;28;20034;-68